PWSweather.com
Personal Weather Stations
Station Observations
ISZATSO01
Eastmont Hills, Oakland, CA 94605

Eastmont HillsOakland, CA 94605

Lat: 37.771372, Lon: -122.163016

Elevation: 427

Station Type: Davis VantageVue

http://iszatso.net/weather

Latest ConditionsUpdated 6:30:02 AM PDT Saturday, Mar 25, 2017
Currently Today's Max Today's Min Today's Average
Temperature 49.0°F9.4°C 52.5°F11.4°C 49.0°F9.4°C 51.5°F10.8°C
Dew Point 46.5°F8.1°C 51.7°F10.9°C 46.5°F8.1°C 49.9°F9.9°C
Winds Calm Calm 3.5 mph NE5.6 kmh NE - 0.5 mph 0.8 kmh
Wind Gusts -- 5.8 mph9.3 kmh - -
Humidity 91% 97% 87% 94%
Pressure 30.13 in1020.3 mb 30.16 in1021.3 mb 30.13 in1020.3 mb -
Hour Temp Dew Point Humidity Winds Wind Gusts Pressure Precip Precip Rate Daily Precip Total
06:30 AM 49.0°F9.4°C 46.5°F8.1°C 91% Calm Calm -- 30.13 in1020.3 mb - 0.00 in0.0 mm 0.00 in0.0 mm
06:20 AM 49.4°F9.7°C 46.9°F8.3°C 91% Calm Calm 2.3 mph3.7 kmh 30.13 in1020.3 mb - 0.00 in0.0 mm 0.00 in0.0 mm
06:10 AM 50.1°F10.1°C 47.0°F8.3°C 89% 2.3 mph NNE3.7 kmh NNE 2.3 mph3.7 kmh 30.13 in1020.3 mb - 0.00 in0.0 mm 0.00 in0.0 mm
06:00 AM 50.4°F10.2°C 47.3°F8.5°C 89% Calm Calm 3.5 mph5.6 kmh 30.13 in1020.3 mb - 0.00 in0.0 mm 0.00 in0.0 mm
05:50 AM 50.8°F10.4°C 47.4°F8.6°C 88% 2.3 mph NE3.7 kmh NE 3.5 mph5.6 kmh 30.13 in1020.3 mb - 0.00 in0.0 mm 0.00 in0.0 mm
05:40 AM 51.3°F10.7°C 47.6°F8.7°C 87% 1.2 mph NE1.9 kmh NE 2.3 mph3.7 kmh 30.13 in1020.3 mb - 0.00 in0.0 mm 0.00 in0.0 mm
05:30 AM 51.4°F10.8°C 47.7°F8.7°C 87% 2.3 mph NNE3.7 kmh NNE 5.8 mph9.3 kmh 30.13 in1020.3 mb - 0.00 in0.0 mm 0.00 in0.0 mm
05:20 AM 51.4°F10.8°C 48.0°F8.9°C 88% 2.3 mph NNE3.7 kmh NNE 4.6 mph7.4 kmh 30.13 in1020.3 mb - 0.00 in0.0 mm 0.00 in0.0 mm
05:10 AM 51.3°F10.7°C 47.9°F8.8°C 88% 2.3 mph NE3.7 kmh NE 4.6 mph7.4 kmh 30.13 in1020.3 mb - 0.00 in0.0 mm 0.00 in0.0 mm
05:00 AM 51.0°F10.6°C 48.2°F9.0°C 90% 3.5 mph NE5.6 kmh NE 5.8 mph9.3 kmh 30.13 in1020.3 mb - 0.00 in0.0 mm 0.00 in0.0 mm
04:50 AM 50.8°F10.4°C 48.5°F9.2°C 92% 1.2 mph 1.9 kmh 3.5 mph5.6 kmh 30.13 in1020.3 mb - 0.00 in0.0 mm 0.00 in0.0 mm
04:40 AM 50.5°F10.3°C 48.8°F9.3°C 94% Calm Calm 1.2 mph1.9 kmh 30.13 in1020.3 mb - 0.00 in0.0 mm 0.00 in0.0 mm
04:30 AM 50.3°F10.2°C 48.9°F9.4°C 95% 1.2 mph NE1.9 kmh NE 2.3 mph3.7 kmh 30.13 in1020.3 mb - 0.00 in0.0 mm 0.00 in0.0 mm
04:20 AM 50.2°F10.1°C 48.8°F9.3°C 95% Calm Calm 1.2 mph1.9 kmh 30.13 in1020.3 mb - 0.00 in0.0 mm 0.00 in0.0 mm
04:10 AM 50.4°F10.2°C 49.3°F9.6°C 96% Calm Calm 1.2 mph1.9 kmh 30.13 in1020.3 mb - 0.00 in0.0 mm 0.00 in0.0 mm
04:00 AM 50.7°F10.4°C 49.6°F9.8°C 96% Calm Calm -- 30.13 in1020.3 mb - 0.00 in0.0 mm 0.00 in0.0 mm
03:50 AM 51.2°F10.7°C 50.1°F10.1°C 96% Calm Calm -- 30.13 in1020.3 mb - 0.00 in0.0 mm 0.00 in0.0 mm
03:40 AM 51.3°F10.7°C 50.2°F10.1°C 96% Calm Calm -- 30.13 in1020.3 mb - 0.00 in0.0 mm 0.00 in0.0 mm
03:30 AM 51.3°F10.7°C 50.2°F10.1°C 96% Calm Calm -- 30.13 in1020.3 mb - 0.00 in0.0 mm 0.00 in0.0 mm
03:20 AM 51.5°F10.8°C 50.4°F10.2°C 96% Calm Calm 1.2 mph1.9 kmh 30.14 in1020.7 mb - 0.00 in0.0 mm 0.00 in0.0 mm
03:10 AM 51.6°F10.9°C 50.8°F10.4°C 97% Calm Calm -- 30.14 in1020.7 mb - 0.00 in0.0 mm 0.00 in0.0 mm
03:00 AM 51.7°F10.9°C 50.9°F10.5°C 97% 1.2 mph N1.9 kmh N 2.3 mph3.7 kmh 30.14 in1020.7 mb - 0.00 in0.0 mm 0.00 in0.0 mm
02:50 AM 51.8°F11.0°C 50.7°F10.4°C 96% Calm Calm -- 30.14 in1020.7 mb - 0.00 in0.0 mm 0.00 in0.0 mm
02:40 AM 52.0°F11.1°C 50.9°F10.5°C 96% Calm Calm -- 30.14 in1020.7 mb - 0.00 in0.0 mm 0.00 in0.0 mm
02:30 AM 52.2°F11.2°C 51.4°F10.8°C 97% Calm Calm -- 30.14 in1020.7 mb - 0.00 in0.0 mm 0.00 in0.0 mm
02:20 AM 52.4°F11.3°C 51.6°F10.9°C 97% Calm Calm -- 30.14 in1020.7 mb - 0.00 in0.0 mm 0.00 in0.0 mm
02:10 AM 52.5°F11.4°C 51.7°F10.9°C 97% Calm Calm -- 30.14 in1020.7 mb - 0.00 in0.0 mm 0.00 in0.0 mm
02:00 AM 52.4°F11.3°C 51.6°F10.9°C 97% Calm Calm -- 30.14 in1020.7 mb - 0.00 in0.0 mm 0.00 in0.0 mm
01:50 AM 52.4°F11.3°C 51.6°F10.9°C 97% Calm Calm -- 30.14 in1020.7 mb - 0.00 in0.0 mm 0.00 in0.0 mm
01:40 AM 52.4°F11.3°C 51.6°F10.9°C 97% Calm Calm -- 30.15 in1021.0 mb - 0.00 in0.0 mm 0.00 in0.0 mm
01:30 AM 52.3°F11.3°C 51.5°F10.8°C 97% Calm Calm -- 30.14 in1020.7 mb - 0.00 in0.0 mm 0.00 in0.0 mm
01:20 AM 52.4°F11.3°C 51.3°F10.7°C 96% Calm Calm -- 30.14 in1020.7 mb - 0.00 in0.0 mm 0.00 in0.0 mm
01:10 AM 52.4°F11.3°C 51.6°F10.9°C 97% Calm Calm -- 30.14 in1020.7 mb - 0.00 in0.0 mm 0.00 in0.0 mm
01:00 AM 52.5°F11.4°C 51.7°F10.9°C 97% Calm Calm -- 30.15 in1021.0 mb - 0.00 in0.0 mm 0.00 in0.0 mm
12:50 AM 52.4°F11.3°C 51.6°F10.9°C 97% Calm Calm -- 30.15 in1021.0 mb - 0.00 in0.0 mm 0.00 in0.0 mm
12:40 AM 52.4°F11.3°C 51.6°F10.9°C 97% Calm Calm -- 30.15 in1021.0 mb - 0.00 in0.0 mm 0.00 in0.0 mm
12:30 AM 52.2°F11.2°C 51.4°F10.8°C 97% Calm Calm -- 30.16 in1021.3 mb - 0.00 in0.0 mm 0.00 in0.0 mm
12:20 AM 52.1°F11.2°C 51.0°F10.6°C 96% Calm Calm -- 30.16 in1021.3 mb - 0.00 in0.0 mm 0.00 in0.0 mm
12:10 AM 52.0°F11.1°C 50.9°F10.5°C 96% Calm Calm -- 30.16 in1021.3 mb - 0.00 in0.0 mm 0.00 in0.0 mm
12:00 AM 52.0°F11.1°C 50.9°F10.5°C 96% Calm Calm -- 30.16 in1021.3 mb - 0.00 in0.0 mm 0.00 in0.0 mm